sensor_id;sensor_type;location;lat;lon;timestamp;P1;durP1;ratioP1;P2;durP2;ratioP2
7205;SDS011;3644;53.480;10.004;2022-09-20T00:00:43;8.70;;;2.40;;
7205;SDS011;3644;53.480;10.004;2022-09-20T00:03:10;14.77;;;2.87;;
7205;SDS011;3644;53.480;10.004;2022-09-20T00:05:37;9.40;;;3.60;;
7205;SDS011;3644;53.480;10.004;2022-09-20T00:08:05;8.93;;;2.43;;
7205;SDS011;3644;53.480;10.004;2022-09-20T00:10:35;11.13;;;2.50;;
7205;SDS011;3644;53.480;10.004;2022-09-20T00:13:03;18.53;;;3.00;;
7205;SDS011;3644;53.480;10.004;2022-09-20T00:15:30;15.07;;;2.83;;
7205;SDS011;3644;53.480;10.004;2022-09-20T00:17:56;15.97;;;3.00;;
7205;SDS011;3644;53.480;10.004;2022-09-20T00:20:22;6.03;;;2.40;;
7205;SDS011;3644;53.480;10.004;2022-09-20T00:22:48;16.10;;;3.00;;
7205;SDS011;3644;53.480;10.004;2022-09-20T00:25:14;11.80;;;2.30;;
7205;SDS011;3644;53.480;10.004;2022-09-20T00:27:41;17.70;;;3.10;;
7205;SDS011;3644;53.480;10.004;2022-09-20T00:30:06;18.40;;;3.17;;
7205;SDS011;3644;53.480;10.004;2022-09-20T00:32:33;12.80;;;3.90;;
7205;SDS011;3644;53.480;10.004;2022-09-20T00:34:58;11.83;;;2.70;;
7205;SDS011;3644;53.480;10.004;2022-09-20T00:37:39;15.87;;;3.60;;
7205;SDS011;3644;53.480;10.004;2022-09-20T00:40:13;13.17;;;3.87;;
7205;SDS011;3644;53.480;10.004;2022-09-20T00:42:41;14.40;;;3.50;;
7205;SDS011;3644;53.480;10.004;2022-09-20T00:45:28;12.77;;;2.90;;
7205;SDS011;3644;53.480;10.004;2022-09-20T00:47:58;9.50;;;3.07;;
7205;SDS011;3644;53.480;10.004;2022-09-20T00:50:43;14.73;;;3.30;;
7205;SDS011;3644;53.480;10.004;2022-09-20T00:53:14;11.80;;;3.13;;
7205;SDS011;3644;53.480;10.004;2022-09-20T00:55:48;18.97;;;4.53;;
7205;SDS011;3644;53.480;10.004;2022-09-20T00:58:20;19.00;;;4.97;;
7205;SDS011;3644;53.480;10.004;2022-09-20T01:00:48;10.33;;;3.50;;
7205;SDS011;3644;53.480;10.004;2022-09-20T01:03:14;12.67;;;3.00;;
7205;SDS011;3644;53.480;10.004;2022-09-20T01:05:44;7.17;;;2.60;;
7205;SDS011;3644;53.480;10.004;2022-09-20T01:08:09;12.40;;;3.67;;
7205;SDS011;3644;53.480;10.004;2022-09-20T01:10:36;13.47;;;3.10;;
7205;SDS011;3644;53.480;10.004;2022-09-20T01:13:02;11.67;;;3.20;;
7205;SDS011;3644;53.480;10.004;2022-09-20T01:15:29;12.40;;;3.27;;
7205;SDS011;3644;53.480;10.004;2022-09-20T01:17:56;24.10;;;2.90;;
7205;SDS011;3644;53.480;10.004;2022-09-20T01:20:28;19.07;;;3.40;;
7205;SDS011;3644;53.480;10.004;2022-09-20T01:23:06;22.27;;;3.17;;
7205;SDS011;3644;53.480;10.004;2022-09-20T01:28:31;10.60;;;2.90;;
7205;SDS011;3644;53.480;10.004;2022-09-20T01:31:17;15.27;;;2.87;;
7205;SDS011;3644;53.480;10.004;2022-09-20T01:36:21;16.40;;;3.03;;
7205;SDS011;3644;53.480;10.004;2022-09-20T01:39:11;10.37;;;2.40;;
7205;SDS011;3644;53.480;10.004;2022-09-20T01:41:47;11.33;;;3.17;;
7205;SDS011;3644;53.480;10.004;2022-09-20T01:44:25;15.57;;;3.27;;
7205;SDS011;3644;53.480;10.004;2022-09-20T01:46:57;21.40;;;3.50;;
7205;SDS011;3644;53.480;10.004;2022-09-20T01:49:56;13.70;;;2.73;;
7205;SDS011;3644;53.480;10.004;2022-09-20T02:01:44;16.07;;;3.03;;
7205;SDS011;3644;53.480;10.004;2022-09-20T02:19:10;12.30;;;3.40;;
7205;SDS011;3644;53.480;10.004;2022-09-20T02:22:00;7.93;;;3.20;;
7205;SDS011;3644;53.480;10.004;2022-09-20T02:24:38;15.33;;;3.70;;
7205;SDS011;3644;53.480;10.004;2022-09-20T02:27:22;12.73;;;3.73;;
7205;SDS011;3644;53.480;10.004;2022-09-20T02:35:34;14.93;;;3.33;;
7205;SDS011;3644;53.480;10.004;2022-09-20T02:52:10;15.67;;;4.13;;
7205;SDS011;3644;53.480;10.004;2022-09-20T03:00:02;10.97;;;4.50;;
7205;SDS011;3644;53.480;10.004;2022-09-20T03:03:49;12.00;;;4.23;;
7205;SDS011;3644;53.480;10.004;2022-09-20T03:05:53;13.20;;;5.23;;
7205;SDS011;3644;53.480;10.004;2022-09-20T03:11:31;11.70;;;5.00;;
7205;SDS011;3644;53.480;10.004;2022-09-20T03:14:23;22.10;;;5.57;;
7205;SDS011;3644;53.480;10.004;2022-09-20T03:19:55;10.83;;;4.43;;
7205;SDS011;3644;53.480;10.004;2022-09-20T03:25:37;18.93;;;4.20;;
7205;SDS011;3644;53.480;10.004;2022-09-20T03:28:33;5.93;;;3.60;;
7205;SDS011;3644;53.480;10.004;2022-09-20T03:31:12;12.57;;;3.97;;
7205;SDS011;3644;53.480;10.004;2022-09-20T03:33:45;14.43;;;4.73;;
7205;SDS011;3644;53.480;10.004;2022-09-20T03:44:41;8.43;;;3.63;;
7205;SDS011;3644;53.480;10.004;2022-09-20T03:50:36;11.20;;;4.30;;
7205;SDS011;3644;53.480;10.004;2022-09-20T04:01:46;5.57;;;3.20;;
7205;SDS011;3644;53.480;10.004;2022-09-20T04:04:39;9.07;;;4.10;;
7205;SDS011;3644;53.480;10.004;2022-09-20T04:09:50;7.00;;;4.53;;
7205;SDS011;3644;53.480;10.004;2022-09-20T04:12:58;7.97;;;4.63;;
7205;SDS011;3644;53.480;10.004;2022-09-20T04:18:42;5.80;;;4.03;;
7205;SDS011;3644;53.480;10.004;2022-09-20T04:23:59;10.83;;;4.10;;
7205;SDS011;3644;53.480;10.004;2022-09-20T04:27:30;4.20;;;3.37;;
7205;SDS011;3644;53.480;10.004;2022-09-20T04:35:41;9.07;;;4.63;;
7205;SDS011;3644;53.480;10.004;2022-09-20T04:38:26;7.10;;;3.33;;
7205;SDS011;3644;53.480;10.004;2022-09-20T05:11:47;9.90;;;4.20;;
7205;SDS011;3644;53.480;10.004;2022-09-20T05:17:32;7.20;;;3.93;;
7205;SDS011;3644;53.480;10.004;2022-09-20T05:20:05;5.40;;;3.90;;
7205;SDS011;3644;53.480;10.004;2022-09-20T05:25:57;9.70;;;4.40;;
7205;SDS011;3644;53.480;10.004;2022-09-20T05:28:30;7.47;;;4.60;;
7205;SDS011;3644;53.480;10.004;2022-09-20T05:31:09;14.43;;;5.23;;
7205;SDS011;3644;53.480;10.004;2022-09-20T05:34:59;6.53;;;4.80;;
7205;SDS011;3644;53.480;10.004;2022-09-20T05:40:53;9.00;;;5.33;;
7205;SDS011;3644;53.480;10.004;2022-09-20T05:44:02;7.80;;;5.33;;
7205;SDS011;3644;53.480;10.004;2022-09-20T05:46:44;7.37;;;4.90;;
7205;SDS011;3644;53.480;10.004;2022-09-20T05:55:19;12.27;;;4.50;;
7205;SDS011;3644;53.480;10.004;2022-09-20T06:00:24;5.00;;;3.83;;
7205;SDS011;3644;53.480;10.004;2022-09-20T06:03:01;8.60;;;4.70;;
7205;SDS011;3644;53.480;10.004;2022-09-20T06:17:23;13.30;;;4.73;;
7205;SDS011;3644;53.480;10.004;2022-09-20T06:22:45;7.53;;;5.00;;
7205;SDS011;3644;53.480;10.004;2022-09-20T06:27:54;11.77;;;4.80;;
7205;SDS011;3644;53.480;10.004;2022-09-20T06:32:55;7.77;;;3.87;;
7205;SDS011;3644;53.480;10.004;2022-09-20T06:35:35;5.03;;;4.10;;
7205;SDS011;3644;53.480;10.004;2022-09-20T06:38:32;6.93;;;4.77;;
7205;SDS011;3644;53.480;10.004;2022-09-20T06:41:18;7.57;;;4.13;;
7205;SDS011;3644;53.480;10.004;2022-09-20T06:43:55;4.60;;;3.23;;
7205;SDS011;3644;53.480;10.004;2022-09-20T06:46:22;3.63;;;2.80;;
7205;SDS011;3644;53.480;10.004;2022-09-20T06:48:48;6.70;;;3.57;;
7205;SDS011;3644;53.480;10.004;2022-09-20T06:51:15;12.87;;;4.33;;
7205;SDS011;3644;53.480;10.004;2022-09-20T06:53:40;6.97;;;4.50;;
7205;SDS011;3644;53.480;10.004;2022-09-20T06:56:07;6.10;;;3.80;;
7205;SDS011;3644;53.480;10.004;2022-09-20T06:58:36;10.10;;;5.27;;
7205;SDS011;3644;53.480;10.004;2022-09-20T07:01:01;7.80;;;3.63;;
7205;SDS011;3644;53.480;10.004;2022-09-20T07:03:27;10.33;;;4.40;;
7205;SDS011;3644;53.480;10.004;2022-09-20T07:05:52;11.10;;;4.70;;
7205;SDS011;3644;53.480;10.004;2022-09-20T07:08:18;12.80;;;3.97;;
7205;SDS011;3644;53.480;10.004;2022-09-20T07:10:43;11.70;;;3.93;;
7205;SDS011;3644;53.480;10.004;2022-09-20T07:13:09;6.40;;;4.63;;
7205;SDS011;3644;53.480;10.004;2022-09-20T07:15:37;5.23;;;3.73;;
7205;SDS011;3644;53.480;10.004;2022-09-20T07:18:03;13.90;;;4.60;;
7205;SDS011;3644;53.480;10.004;2022-09-20T07:20:29;11.73;;;4.70;;
7205;SDS011;3644;53.480;10.004;2022-09-20T07:22:54;15.97;;;4.20;;
7205;SDS011;3644;53.480;10.004;2022-09-20T07:25:20;10.40;;;3.17;;
7205;SDS011;3644;53.480;10.004;2022-09-20T07:27:47;6.33;;;3.37;;
7205;SDS011;3644;53.480;10.004;2022-09-20T07:30:14;12.27;;;3.73;;
7205;SDS011;3644;53.480;10.004;2022-09-20T07:32:41;10.77;;;3.10;;
7205;SDS011;3644;53.480;10.004;2022-09-20T07:35:10;22.33;;;4.37;;
7205;SDS011;3644;53.480;10.004;2022-09-20T07:37:36;14.90;;;2.63;;
7205;SDS011;3644;53.480;10.004;2022-09-20T07:40:03;7.73;;;3.30;;
7205;SDS011;3644;53.480;10.004;2022-09-20T07:42:29;17.77;;;3.00;;
7205;SDS011;3644;53.480;10.004;2022-09-20T07:44:55;15.27;;;2.77;;
7205;SDS011;3644;53.480;10.004;2022-09-20T07:47:20;2.87;;;2.57;;
7205;SDS011;3644;53.480;10.004;2022-09-20T07:49:49;8.13;;;2.90;;
7205;SDS011;3644;53.480;10.004;2022-09-20T07:52:15;9.70;;;2.70;;
7205;SDS011;3644;53.480;10.004;2022-09-20T07:54:40;12.43;;;2.40;;
7205;SDS011;3644;53.480;10.004;2022-09-20T07:57:06;16.10;;;2.70;;
7205;SDS011;3644;53.480;10.004;2022-09-20T07:59:32;10.40;;;2.73;;
7205;SDS011;3644;53.480;10.004;2022-09-20T08:01:57;20.10;;;3.10;;
7205;SDS011;3644;53.480;10.004;2022-09-20T08:04:24;6.33;;;2.50;;
7205;SDS011;3644;53.480;10.004;2022-09-20T08:06:50;7.90;;;1.93;;
7205;SDS011;3644;53.480;10.004;2022-09-20T08:09:16;12.00;;;2.13;;
7205;SDS011;3644;53.480;10.004;2022-09-20T08:11:41;9.83;;;2.50;;
7205;SDS011;3644;53.480;10.004;2022-09-20T08:14:08;10.93;;;2.50;;
7205;SDS011;3644;53.480;10.004;2022-09-20T08:16:41;11.30;;;2.63;;
7205;SDS011;3644;53.480;10.004;2022-09-20T08:19:18;22.30;;;3.10;;
7205;SDS011;3644;53.480;10.004;2022-09-20T08:21:46;8.90;;;2.80;;
7205;SDS011;3644;53.480;10.004;2022-09-20T08:24:12;11.03;;;2.53;;
7205;SDS011;3644;53.480;10.004;2022-09-20T08:26:39;23.07;;;2.73;;
7205;SDS011;3644;53.480;10.004;2022-09-20T08:29:05;6.90;;;2.60;;
7205;SDS011;3644;53.480;10.004;2022-09-20T08:31:31;9.43;;;3.47;;
7205;SDS011;3644;53.480;10.004;2022-09-20T08:33:59;10.00;;;2.33;;
7205;SDS011;3644;53.480;10.004;2022-09-20T08:36:29;14.47;;;2.77;;
7205;SDS011;3644;53.480;10.004;2022-09-20T08:38:55;23.33;;;3.70;;
7205;SDS011;3644;53.480;10.004;2022-09-20T08:41:32;10.50;;;3.10;;
7205;SDS011;3644;53.480;10.004;2022-09-20T08:46:38;11.40;;;2.70;;
7205;SDS011;3644;53.480;10.004;2022-09-20T08:49:09;8.63;;;2.60;;
7205;SDS011;3644;53.480;10.004;2022-09-20T08:51:46;13.57;;;2.80;;
7205;SDS011;3644;53.480;10.004;2022-09-20T08:54:15;6.50;;;2.43;;
7205;SDS011;3644;53.480;10.004;2022-09-20T08:56:41;7.40;;;2.13;;
7205;SDS011;3644;53.480;10.004;2022-09-20T08:59:10;8.37;;;2.10;;
7205;SDS011;3644;53.480;10.004;2022-09-20T09:01:40;18.90;;;3.60;;
7205;SDS011;3644;53.480;10.004;2022-09-20T09:04:13;15.00;;;2.30;;
7205;SDS011;3644;53.480;10.004;2022-09-20T09:06:41;16.63;;;2.60;;
7205;SDS011;3644;53.480;10.004;2022-09-20T09:09:11;13.33;;;2.30;;
7205;SDS011;3644;53.480;10.004;2022-09-20T09:11:43;13.70;;;2.50;;
7205;SDS011;3644;53.480;10.004;2022-09-20T09:14:11;18.27;;;2.50;;
7205;SDS011;3644;53.480;10.004;2022-09-20T09:17:03;16.83;;;3.00;;
7205;SDS011;3644;53.480;10.004;2022-09-20T09:19:29;11.87;;;2.33;;
7205;SDS011;3644;53.480;10.004;2022-09-20T09:21:58;11.10;;;2.07;;
7205;SDS011;3644;53.480;10.004;2022-09-20T09:24:26;12.47;;;2.40;;
7205;SDS011;3644;53.480;10.004;2022-09-20T09:27:04;12.80;;;3.37;;
7205;SDS011;3644;53.480;10.004;2022-09-20T09:29:33;10.30;;;2.77;;
7205;SDS011;3644;53.480;10.004;2022-09-20T09:32:16;11.20;;;2.23;;
7205;SDS011;3644;53.480;10.004;2022-09-20T09:34:45;10.73;;;2.37;;
7205;SDS011;3644;53.480;10.004;2022-09-20T09:37:29;6.10;;;2.40;;
7205;SDS011;3644;53.480;10.004;2022-09-20T09:42:41;6.20;;;1.97;;
7205;SDS011;3644;53.480;10.004;2022-09-20T09:45:22;13.93;;;2.53;;
7205;SDS011;3644;53.480;10.004;2022-09-20T09:47:57;10.17;;;2.20;;
7205;SDS011;3644;53.480;10.004;2022-09-20T09:50:28;6.33;;;1.97;;
7205;SDS011;3644;53.480;10.004;2022-09-20T09:53:00;7.60;;;2.10;;
7205;SDS011;3644;53.480;10.004;2022-09-20T09:55:50;8.63;;;2.30;;
7205;SDS011;3644;53.480;10.004;2022-09-20T09:58:33;6.73;;;2.10;;
7205;SDS011;3644;53.480;10.004;2022-09-20T10:01:26;9.10;;;2.47;;
7205;SDS011;3644;53.480;10.004;2022-09-20T10:04:05;12.00;;;3.70;;
7205;SDS011;3644;53.480;10.004;2022-09-20T10:12:50;11.33;;;2.03;;
7205;SDS011;3644;53.480;10.004;2022-09-20T10:15:44;10.63;;;2.80;;
7205;SDS011;3644;53.480;10.004;2022-09-20T10:21:05;15.70;;;2.30;;
7205;SDS011;3644;53.480;10.004;2022-09-20T10:29:37;4.87;;;1.90;;
7205;SDS011;3644;53.480;10.004;2022-09-20T10:32:38;7.67;;;1.67;;
7205;SDS011;3644;53.480;10.004;2022-09-20T10:38:22;15.10;;;2.83;;
7205;SDS011;3644;53.480;10.004;2022-09-20T10:41:02;9.77;;;2.20;;
7205;SDS011;3644;53.480;10.004;2022-09-20T10:52:46;11.80;;;2.27;;
7205;SDS011;3644;53.480;10.004;2022-09-20T10:55:36;8.93;;;1.67;;
7205;SDS011;3644;53.480;10.004;2022-09-20T10:58:15;11.73;;;2.30;;
7205;SDS011;3644;53.480;10.004;2022-09-20T11:01:26;8.80;;;2.03;;
7205;SDS011;3644;53.480;10.004;2022-09-20T11:09:23;6.70;;;1.63;;
7205;SDS011;3644;53.480;10.004;2022-09-20T11:12:00;8.43;;;1.83;;
7205;SDS011;3644;53.480;10.004;2022-09-20T11:14:39;6.30;;;1.80;;
7205;SDS011;3644;53.480;10.004;2022-09-20T11:22:30;3.47;;;1.60;;
7205;SDS011;3644;53.480;10.004;2022-09-20T11:25:17;10.17;;;2.03;;
7205;SDS011;3644;53.480;10.004;2022-09-20T11:27:45;7.70;;;1.90;;
7205;SDS011;3644;53.480;10.004;2022-09-20T11:30:16;12.83;;;2.83;;
7205;SDS011;3644;53.480;10.004;2022-09-20T11:32:52;12.87;;;2.50;;
7205;SDS011;3644;53.480;10.004;2022-09-20T11:35:54;13.23;;;1.77;;
7205;SDS011;3644;53.480;10.004;2022-09-20T11:38:27;15.43;;;2.33;;
7205;SDS011;3644;53.480;10.004;2022-09-20T11:43:35;17.50;;;2.00;;
7205;SDS011;3644;53.480;10.004;2022-09-20T11:46:07;14.43;;;1.97;;
7205;SDS011;3644;53.480;10.004;2022-09-20T11:48:42;8.90;;;2.97;;
7205;SDS011;3644;53.480;10.004;2022-09-20T11:57:02;7.27;;;2.10;;
7205;SDS011;3644;53.480;10.004;2022-09-20T11:59:32;6.20;;;1.80;;
7205;SDS011;3644;53.480;10.004;2022-09-20T12:02:18;9.13;;;2.23;;
7205;SDS011;3644;53.480;10.004;2022-09-20T12:04:49;10.87;;;1.93;;
7205;SDS011;3644;53.480;10.004;2022-09-20T12:07:24;9.97;;;2.00;;
7205;SDS011;3644;53.480;10.004;2022-09-20T12:10:18;7.60;;;2.10;;
7205;SDS011;3644;53.480;10.004;2022-09-20T12:12:54;8.57;;;1.97;;
7205;SDS011;3644;53.480;10.004;2022-09-20T12:15:42;6.23;;;1.73;;
7205;SDS011;3644;53.480;10.004;2022-09-20T12:21:09;8.17;;;2.13;;
7205;SDS011;3644;53.480;10.004;2022-09-20T12:28:37;9.23;;;2.40;;
7205;SDS011;3644;53.480;10.004;2022-09-20T12:34:00;9.37;;;2.10;;
7205;SDS011;3644;53.480;10.004;2022-09-20T12:36:34;5.97;;;1.80;;
7205;SDS011;3644;53.480;10.004;2022-09-20T12:44:22;7.70;;;2.13;;
7205;SDS011;3644;53.480;10.004;2022-09-20T12:46:52;8.20;;;2.40;;
7205;SDS011;3644;53.480;10.004;2022-09-20T12:52:28;4.73;;;1.53;;
7205;SDS011;3644;53.480;10.004;2022-09-20T12:58:02;7.23;;;1.63;;
7205;SDS011;3644;53.480;10.004;2022-09-20T13:03:24;16.67;;;2.30;;
7205;SDS011;3644;53.480;10.004;2022-09-20T13:11:52;9.07;;;2.30;;
7205;SDS011;3644;53.480;10.004;2022-09-20T13:14:21;7.53;;;1.47;;
7205;SDS011;3644;53.480;10.004;2022-09-20T13:19:51;7.80;;;1.60;;
7205;SDS011;3644;53.480;10.004;2022-09-20T13:22:21;6.70;;;2.00;;
7205;SDS011;3644;53.480;10.004;2022-09-20T13:25:09;4.80;;;1.77;;
7205;SDS011;3644;53.480;10.004;2022-09-20T13:27:39;6.70;;;1.40;;
7205;SDS011;3644;53.480;10.004;2022-09-20T13:30:25;11.77;;;2.07;;
7205;SDS011;3644;53.480;10.004;2022-09-20T13:32:53;3.80;;;1.63;;
7205;SDS011;3644;53.480;10.004;2022-09-20T13:35:20;5.73;;;1.70;;
7205;SDS011;3644;53.480;10.004;2022-09-20T13:38:04;7.00;;;1.80;;
7205;SDS011;3644;53.480;10.004;2022-09-20T13:43:26;8.87;;;2.27;;
7205;SDS011;3644;53.480;10.004;2022-09-20T13:46:05;3.33;;;1.30;;
7205;SDS011;3644;53.480;10.004;2022-09-20T13:48:32;7.63;;;1.40;;
7205;SDS011;3644;53.480;10.004;2022-09-20T13:50:57;3.90;;;1.30;;
7205;SDS011;3644;53.480;10.004;2022-09-20T13:53:24;6.67;;;1.23;;
7205;SDS011;3644;53.480;10.004;2022-09-20T13:55:52;5.10;;;1.40;;
7205;SDS011;3644;53.480;10.004;2022-09-20T14:00:50;3.67;;;1.40;;
7205;SDS011;3644;53.480;10.004;2022-09-20T14:03:19;7.03;;;1.70;;
7205;SDS011;3644;53.480;10.004;2022-09-20T14:05:49;3.23;;;1.20;;
7205;SDS011;3644;53.480;10.004;2022-09-20T14:08:20;6.90;;;1.40;;
7205;SDS011;3644;53.480;10.004;2022-09-20T14:10:49;3.90;;;1.00;;
7205;SDS011;3644;53.480;10.004;2022-09-20T14:13:27;4.90;;;2.50;;
7205;SDS011;3644;53.480;10.004;2022-09-20T14:15:55;8.03;;;1.90;;
7205;SDS011;3644;53.480;10.004;2022-09-20T14:18:21;4.03;;;1.20;;
7205;SDS011;3644;53.480;10.004;2022-09-20T14:20:48;7.33;;;1.83;;
7205;SDS011;3644;53.480;10.004;2022-09-20T14:23:24;7.27;;;2.13;;
7205;SDS011;3644;53.480;10.004;2022-09-20T14:34:59;7.73;;;1.90;;
7205;SDS011;3644;53.480;10.004;2022-09-20T14:37:33;6.27;;;1.90;;
7205;SDS011;3644;53.480;10.004;2022-09-20T14:40:00;3.43;;;1.47;;
7205;SDS011;3644;53.480;10.004;2022-09-20T14:42:30;9.53;;;2.13;;
7205;SDS011;3644;53.480;10.004;2022-09-20T14:45:05;10.27;;;1.90;;
7205;SDS011;3644;53.480;10.004;2022-09-20T14:47:39;6.60;;;1.37;;
7205;SDS011;3644;53.480;10.004;2022-09-20T14:55:27;13.87;;;2.00;;
7205;SDS011;3644;53.480;10.004;2022-09-20T14:57:56;3.57;;;1.67;;
7205;SDS011;3644;53.480;10.004;2022-09-20T15:00:24;8.90;;;2.20;;
7205;SDS011;3644;53.480;10.004;2022-09-20T15:02:51;13.87;;;2.03;;
7205;SDS011;3644;53.480;10.004;2022-09-20T15:05:21;4.33;;;1.40;;
7205;SDS011;3644;53.480;10.004;2022-09-20T15:07:54;7.50;;;1.70;;
7205;SDS011;3644;53.480;10.004;2022-09-20T15:10:20;4.57;;;1.37;;
7205;SDS011;3644;53.480;10.004;2022-09-20T15:12:46;3.97;;;1.67;;
7205;SDS011;3644;53.480;10.004;2022-09-20T15:15:13;3.53;;;1.30;;
7205;SDS011;3644;53.480;10.004;2022-09-20T15:17:42;9.73;;;1.73;;
7205;SDS011;3644;53.480;10.004;2022-09-20T15:20:16;5.17;;;1.30;;
7205;SDS011;3644;53.480;10.004;2022-09-20T15:22:44;3.00;;;1.20;;
7205;SDS011;3644;53.480;10.004;2022-09-20T15:25:14;5.80;;;1.50;;
7205;SDS011;3644;53.480;10.004;2022-09-20T15:27:42;2.70;;;1.17;;
7205;SDS011;3644;53.480;10.004;2022-09-20T15:30:10;4.93;;;1.20;;
7205;SDS011;3644;53.480;10.004;2022-09-20T15:32:37;2.43;;;1.57;;
7205;SDS011;3644;53.480;10.004;2022-09-20T15:35:03;10.33;;;1.77;;
7205;SDS011;3644;53.480;10.004;2022-09-20T15:37:30;5.50;;;1.60;;
7205;SDS011;3644;53.480;10.004;2022-09-20T15:39:55;2.30;;;1.20;;
7205;SDS011;3644;53.480;10.004;2022-09-20T15:42:21;6.47;;;1.70;;
7205;SDS011;3644;53.480;10.004;2022-09-20T15:44:47;4.57;;;1.67;;
7205;SDS011;3644;53.480;10.004;2022-09-20T15:47:15;11.40;;;1.17;;
7205;SDS011;3644;53.480;10.004;2022-09-20T15:49:40;5.43;;;1.50;;
7205;SDS011;3644;53.480;10.004;2022-09-20T15:52:06;4.30;;;1.50;;
7205;SDS011;3644;53.480;10.004;2022-09-20T15:54:31;3.07;;;1.20;;
7205;SDS011;3644;53.480;10.004;2022-09-20T15:56:57;7.13;;;1.57;;
7205;SDS011;3644;53.480;10.004;2022-09-20T15:59:22;3.27;;;1.47;;
7205;SDS011;3644;53.480;10.004;2022-09-20T16:01:48;16.70;;;1.70;;
7205;SDS011;3644;53.480;10.004;2022-09-20T16:04:14;4.57;;;1.63;;
7205;SDS011;3644;53.480;10.004;2022-09-20T16:06:43;5.87;;;1.17;;
7205;SDS011;3644;53.480;10.004;2022-09-20T16:09:09;11.13;;;2.10;;
7205;SDS011;3644;53.480;10.004;2022-09-20T16:11:36;6.80;;;1.40;;
7205;SDS011;3644;53.480;10.004;2022-09-20T16:14:02;5.67;;;2.10;;
7205;SDS011;3644;53.480;10.004;2022-09-20T16:16:29;4.20;;;1.73;;
7205;SDS011;3644;53.480;10.004;2022-09-20T16:18:56;7.30;;;2.17;;
7205;SDS011;3644;53.480;10.004;2022-09-20T16:21:41;3.60;;;1.30;;
7205;SDS011;3644;53.480;10.004;2022-09-20T16:24:08;8.73;;;1.60;;
7205;SDS011;3644;53.480;10.004;2022-09-20T16:26:36;14.43;;;2.23;;
7205;SDS011;3644;53.480;10.004;2022-09-20T16:29:02;5.40;;;2.10;;
7205;SDS011;3644;53.480;10.004;2022-09-20T16:31:47;6.83;;;1.93;;
7205;SDS011;3644;53.480;10.004;2022-09-20T16:34:17;8.30;;;2.27;;
7205;SDS011;3644;53.480;10.004;2022-09-20T16:36:49;6.43;;;2.00;;
7205;SDS011;3644;53.480;10.004;2022-09-20T16:39:16;14.30;;;1.93;;
7205;SDS011;3644;53.480;10.004;2022-09-20T16:41:44;5.93;;;1.87;;
7205;SDS011;3644;53.480;10.004;2022-09-20T16:44:11;6.50;;;1.50;;
7205;SDS011;3644;53.480;10.004;2022-09-20T16:46:37;5.60;;;1.63;;
7205;SDS011;3644;53.480;10.004;2022-09-20T16:49:04;6.27;;;1.97;;
7205;SDS011;3644;53.480;10.004;2022-09-20T16:51:33;6.07;;;1.87;;
7205;SDS011;3644;53.480;10.004;2022-09-20T16:54:04;5.70;;;2.00;;
7205;SDS011;3644;53.480;10.004;2022-09-20T16:56:38;11.93;;;2.17;;
7205;SDS011;3644;53.480;10.004;2022-09-20T16:59:11;9.67;;;2.17;;
7205;SDS011;3644;53.480;10.004;2022-09-20T17:01:38;11.50;;;2.13;;
7205;SDS011;3644;53.480;10.004;2022-09-20T17:04:04;9.47;;;2.20;;
7205;SDS011;3644;53.480;10.004;2022-09-20T17:06:30;25.93;;;2.10;;
7205;SDS011;3644;53.480;10.004;2022-09-20T17:08:58;5.03;;;1.57;;
7205;SDS011;3644;53.480;10.004;2022-09-20T17:11:25;10.67;;;2.27;;
7205;SDS011;3644;53.480;10.004;2022-09-20T17:13:52;5.87;;;1.60;;
7205;SDS011;3644;53.480;10.004;2022-09-20T17:16:28;6.43;;;1.47;;
7205;SDS011;3644;53.480;10.004;2022-09-20T17:18:56;3.63;;;1.90;;
7205;SDS011;3644;53.480;10.004;2022-09-20T17:21:24;8.60;;;1.60;;
7205;SDS011;3644;53.480;10.004;2022-09-20T17:23:52;5.80;;;1.90;;
7205;SDS011;3644;53.480;10.004;2022-09-20T17:26:26;10.23;;;1.87;;
7205;SDS011;3644;53.480;10.004;2022-09-20T17:28:55;9.03;;;2.43;;
7205;SDS011;3644;53.480;10.004;2022-09-20T17:31:23;13.30;;;2.67;;
7205;SDS011;3644;53.480;10.004;2022-09-20T17:33:58;9.87;;;3.13;;
7205;SDS011;3644;53.480;10.004;2022-09-20T17:36:25;7.30;;;2.10;;
7205;SDS011;3644;53.480;10.004;2022-09-20T17:38:53;4.73;;;2.07;;
7205;SDS011;3644;53.480;10.004;2022-09-20T17:41:20;9.00;;;2.20;;
7205;SDS011;3644;53.480;10.004;2022-09-20T17:43:46;9.10;;;2.30;;
7205;SDS011;3644;53.480;10.004;2022-09-20T17:46:16;7.10;;;1.83;;
7205;SDS011;3644;53.480;10.004;2022-09-20T17:48:50;4.93;;;2.07;;
7205;SDS011;3644;53.480;10.004;2022-09-20T17:51:19;9.73;;;2.47;;
7205;SDS011;3644;53.480;10.004;2022-09-20T17:53:46;6.20;;;2.00;;
7205;SDS011;3644;53.480;10.004;2022-09-20T17:56:12;6.70;;;1.73;;
7205;SDS011;3644;53.480;10.004;2022-09-20T17:58:38;6.97;;;1.80;;
7205;SDS011;3644;53.480;10.004;2022-09-20T18:01:06;8.03;;;1.70;;
7205;SDS011;3644;53.480;10.004;2022-09-20T18:03:38;4.53;;;2.13;;
7205;SDS011;3644;53.480;10.004;2022-09-20T18:06:22;11.53;;;2.47;;
7205;SDS011;3644;53.480;10.004;2022-09-20T18:08:50;8.63;;;2.42;;
7205;SDS011;3644;53.480;10.004;2022-09-20T18:11:18;5.75;;;2.50;;
7205;SDS011;3644;53.480;10.004;2022-09-20T18:13:45;14.43;;;3.63;;
7205;SDS011;3644;53.480;10.004;2022-09-20T18:16:12;11.93;;;4.77;;
7205;SDS011;3644;53.480;10.004;2022-09-20T18:18:39;9.80;;;4.87;;
7205;SDS011;3644;53.480;10.004;2022-09-20T18:21:08;12.57;;;6.37;;
7205;SDS011;3644;53.480;10.004;2022-09-20T18:23:41;7.03;;;5.00;;
7205;SDS011;3644;53.480;10.004;2022-09-20T18:26:08;9.10;;;5.10;;
7205;SDS011;3644;53.480;10.004;2022-09-20T18:29:00;14.37;;;5.90;;
7205;SDS011;3644;53.480;10.004;2022-09-20T18:31:36;28.57;;;9.57;;
7205;SDS011;3644;53.480;10.004;2022-09-20T18:34:10;27.20;;;10.87;;
7205;SDS011;3644;53.480;10.004;2022-09-20T18:36:39;22.05;;;10.15;;
7205;SDS011;3644;53.480;10.004;2022-09-20T18:39:05;28.60;;;7.03;;
7205;SDS011;3644;53.480;10.004;2022-09-20T18:41:31;14.00;;;5.53;;
7205;SDS011;3644;53.480;10.004;2022-09-20T18:44:01;19.67;;;4.80;;
7205;SDS011;3644;53.480;10.004;2022-09-20T18:46:28;8.10;;;3.63;;
7205;SDS011;3644;53.480;10.004;2022-09-20T18:48:55;17.50;;;4.50;;
7205;SDS011;3644;53.480;10.004;2022-09-20T18:51:24;18.23;;;4.43;;
7205;SDS011;3644;53.480;10.004;2022-09-20T18:53:52;9.83;;;4.40;;
7205;SDS011;3644;53.480;10.004;2022-09-20T18:58:46;16.07;;;4.37;;
7205;SDS011;3644;53.480;10.004;2022-09-20T19:04:09;11.80;;;3.80;;
7205;SDS011;3644;53.480;10.004;2022-09-20T19:06:45;10.40;;;2.93;;
7205;SDS011;3644;53.480;10.004;2022-09-20T19:09:29;7.33;;;2.53;;
7205;SDS011;3644;53.480;10.004;2022-09-20T19:12:21;11.73;;;2.57;;
7205;SDS011;3644;53.480;10.004;2022-09-20T19:17:31;13.70;;;4.13;;
7205;SDS011;3644;53.480;10.004;2022-09-20T19:20:51;8.53;;;3.23;;
7205;SDS011;3644;53.480;10.004;2022-09-20T19:23:01;7.30;;;3.10;;
7205;SDS011;3644;53.480;10.004;2022-09-20T19:25:49;8.30;;;2.90;;
7205;SDS011;3644;53.480;10.004;2022-09-20T19:28:29;3.70;;;2.40;;
7205;SDS011;3644;53.480;10.004;2022-09-20T19:30:55;11.13;;;2.63;;
7205;SDS011;3644;53.480;10.004;2022-09-20T19:33:22;14.03;;;3.10;;
7205;SDS011;3644;53.480;10.004;2022-09-20T19:35:48;7.60;;;2.63;;
7205;SDS011;3644;53.480;10.004;2022-09-20T19:38:18;7.07;;;2.50;;
7205;SDS011;3644;53.480;10.004;2022-09-20T19:40:57;8.97;;;2.90;;
7205;SDS011;3644;53.480;10.004;2022-09-20T19:46:41;2.73;;;2.10;;
7205;SDS011;3644;53.480;10.004;2022-09-20T19:52:17;8.57;;;2.70;;
7205;SDS011;3644;53.480;10.004;2022-09-20T19:54:43;8.20;;;2.63;;
7205;SDS011;3644;53.480;10.004;2022-09-20T19:57:17;8.90;;;3.00;;
7205;SDS011;3644;53.480;10.004;2022-09-20T19:59:44;11.00;;;3.70;;
7205;SDS011;3644;53.480;10.004;2022-09-20T20:02:10;12.20;;;3.53;;
7205;SDS011;3644;53.480;10.004;2022-09-20T20:04:36;13.93;;;3.50;;
7205;SDS011;3644;53.480;10.004;2022-09-20T20:25:40;6.10;;;2.30;;
7205;SDS011;3644;53.480;10.004;2022-09-20T20:28:11;6.20;;;2.60;;
7205;SDS011;3644;53.480;10.004;2022-09-20T20:30:36;9.77;;;2.90;;
7205;SDS011;3644;53.480;10.004;2022-09-20T20:33:02;13.13;;;3.53;;